sensor_id;sensor_type;location;lat;lon;timestamp;pressure;altitude;pressure_sealevel;temperature;humidity
18784;BME280;9520;50.954;6.968;2023-12-14T00:00:19;100027.69;;;16.78;55.22
18784;BME280;9520;50.954;6.968;2023-12-14T00:00:41;100018.84;;;16.77;55.49
18784;BME280;9520;50.954;6.968;2023-12-14T00:01:03;100027.63;;;16.79;55.31
18784;BME280;9520;50.954;6.968;2023-12-14T00:01:27;100024.03;;;16.80;55.36
18784;BME280;9520;50.954;6.968;2023-12-14T00:01:49;100026.75;;;16.79;55.47
18784;BME280;9520;50.954;6.968;2023-12-14T00:02:10;100032.16;;;16.77;55.51
18784;BME280;9520;50.954;6.968;2023-12-14T00:02:32;100024.34;;;16.74;55.45
18784;BME280;9520;50.954;6.968;2023-12-14T00:02:55;100033.25;;;16.73;55.71
18784;BME280;9520;50.954;6.968;2023-12-14T00:03:17;100032.41;;;16.73;55.59
18784;BME280;9520;50.954;6.968;2023-12-14T00:03:38;100045.72;;;16.73;55.75
18784;BME280;9520;50.954;6.968;2023-12-14T00:04:04;100029.59;;;16.76;55.85
18784;BME280;9520;50.954;6.968;2023-12-14T00:04:26;100023.16;;;16.63;55.63
18784;BME280;9520;50.954;6.968;2023-12-14T00:04:49;100042.22;;;16.72;55.82
18784;BME280;9520;50.954;6.968;2023-12-14T00:05:11;100038.69;;;16.72;55.68
18784;BME280;9520;50.954;6.968;2023-12-14T00:05:33;100039.69;;;16.69;55.82
18784;BME280;9520;50.954;6.968;2023-12-14T00:05:54;100047.44;;;16.74;55.76
18784;BME280;9520;50.954;6.968;2023-12-14T00:06:16;100039.44;;;16.74;55.64
18784;BME280;9520;50.954;6.968;2023-12-14T00:06:37;100034.06;;;16.75;55.67
18784;BME280;9520;50.954;6.968;2023-12-14T00:07:00;100044.72;;;16.75;55.77
18784;BME280;9520;50.954;6.968;2023-12-14T00:07:22;100038.53;;;16.75;55.60
18784;BME280;9520;50.954;6.968;2023-12-14T00:07:45;100043.06;;;16.73;55.72
18784;BME280;9520;50.954;6.968;2023-12-14T00:08:07;100046.69;;;16.72;55.55
18784;BME280;9520;50.954;6.968;2023-12-14T00:08:29;100043.22;;;16.70;55.74
18784;BME280;9520;50.954;6.968;2023-12-14T00:08:50;100042.28;;;16.71;55.64
18784;BME280;9520;50.954;6.968;2023-12-14T00:09:13;100046.69;;;16.72;55.90
18784;BME280;9520;50.954;6.968;2023-12-14T00:09:35;100043.06;;;16.73;55.73
18784;BME280;9520;50.954;6.968;2023-12-14T00:09:56;100036.25;;;16.67;55.67
18784;BME280;9520;50.954;6.968;2023-12-14T00:10:18;100040.31;;;16.74;55.54
18784;BME280;9520;50.954;6.968;2023-12-14T00:10:39;100041.25;;;16.73;55.75
18784;BME280;9520;50.954;6.968;2023-12-14T00:11:03;100038.53;;;16.75;55.81
18784;BME280;9520;50.954;6.968;2023-12-14T00:11:25;100040.25;;;16.76;55.65
18784;BME280;9520;50.954;6.968;2023-12-14T00:11:47;100042.53;;;16.66;55.63
18784;BME280;9520;50.954;6.968;2023-12-14T00:12:09;100042.28;;;16.71;55.87
18784;BME280;9520;50.954;6.968;2023-12-14T00:12:30;100050.28;;;16.71;56.18
18784;BME280;9520;50.954;6.968;2023-12-14T00:12:54;100054.66;;;16.72;55.53
18784;BME280;9520;50.954;6.968;2023-12-14T00:13:16;100046.75;;;16.70;55.63
18784;BME280;9520;50.954;6.968;2023-12-14T00:13:38;100049.72;;;16.64;55.90
18784;BME280;9520;50.954;6.968;2023-12-14T00:14:00;100053.88;;;16.70;55.97
18784;BME280;9520;50.954;6.968;2023-12-14T00:14:22;100054.81;;;16.69;55.70
18784;BME280;9520;50.954;6.968;2023-12-14T00:14:43;100053.00;;;16.69;55.88
18784;BME280;9520;50.954;6.968;2023-12-14T00:15:07;100050.41;;;16.68;55.53
18784;BME280;9520;50.954;6.968;2023-12-14T00:15:29;100033.13;;;16.58;55.76
18784;BME280;9520;50.954;6.968;2023-12-14T00:15:50;100052.94;;;16.71;55.71
18784;BME280;9520;50.954;6.968;2023-12-14T00:16:13;100057.41;;;16.70;55.88
18784;BME280;9520;50.954;6.968;2023-12-14T00:16:35;100052.94;;;16.71;55.79
18784;BME280;9520;50.954;6.968;2023-12-14T00:16:59;100042.75;;;16.62;55.83
18784;BME280;9520;50.954;6.968;2023-12-14T00:17:21;100037.56;;;16.59;55.55
18784;BME280;9520;50.954;6.968;2023-12-14T00:17:43;100034.09;;;16.57;55.70
18784;BME280;9520;50.954;6.968;2023-12-14T00:18:04;100042.16;;;16.55;55.67
18784;BME280;9520;50.954;6.968;2023-12-14T00:18:28;100059.34;;;16.67;55.95
18784;BME280;9520;50.954;6.968;2023-12-14T00:18:49;100055.72;;;16.68;56.02
18784;BME280;9520;50.954;6.968;2023-12-14T00:19:12;100060.13;;;16.69;55.67
18784;BME280;9520;50.954;6.968;2023-12-14T00:19:34;100056.69;;;16.67;56.00
18784;BME280;9520;50.954;6.968;2023-12-14T00:19:56;100050.63;;;16.63;55.94
18784;BME280;9520;50.954;6.968;2023-12-14T00:20:17;100056.75;;;16.65;56.02
18784;BME280;9520;50.954;6.968;2023-12-14T00:20:39;100060.34;;;16.64;56.08
18784;BME280;9520;50.954;6.968;2023-12-14T00:21:02;100053.47;;;16.60;55.81
18784;BME280;9520;50.954;6.968;2023-12-14T00:21:24;100051.75;;;16.59;56.12
18784;BME280;9520;50.954;6.968;2023-12-14T00:21:46;100066.47;;;16.66;55.84
18784;BME280;9520;50.954;6.968;2023-12-14T00:22:08;100063.88;;;16.65;56.06
18784;BME280;9520;50.954;6.968;2023-12-14T00:22:29;100059.66;;;16.61;56.09
18784;BME280;9520;50.954;6.968;2023-12-14T00:22:53;100063.94;;;16.63;56.19
18784;BME280;9520;50.954;6.968;2023-12-14T00:23:15;100070.09;;;16.65;55.84
18784;BME280;9520;50.954;6.968;2023-12-14T00:23:37;100067.41;;;16.65;56.12
18784;BME280;9520;50.954;6.968;2023-12-14T00:23:58;100056.94;;;16.62;56.08
18784;BME280;9520;50.954;6.968;2023-12-14T00:24:20;100067.47;;;16.64;56.02
18784;BME280;9520;50.954;6.968;2023-12-14T00:24:42;100070.38;;;16.59;56.16
18784;BME280;9520;50.954;6.968;2023-12-14T00:25:05;100069.50;;;16.59;56.25
18784;BME280;9520;50.954;6.968;2023-12-14T00:25:27;100074.84;;;16.59;56.13
18784;BME280;9520;50.954;6.968;2023-12-14T00:25:49;100071.50;;;16.54;56.32
18784;BME280;9520;50.954;6.968;2023-12-14T00:26:10;100075.97;;;16.53;56.22
18784;BME280;9520;50.954;6.968;2023-12-14T00:26:32;100069.63;;;16.56;56.35
18784;BME280;9520;50.954;6.968;2023-12-14T00:26:54;100069.63;;;16.56;56.45
18784;BME280;9520;50.954;6.968;2023-12-14T00:27:17;100073.16;;;16.56;56.24
18784;BME280;9520;50.954;6.968;2023-12-14T00:27:38;100067.72;;;16.59;56.44
18784;BME280;9520;50.954;6.968;2023-12-14T00:28:00;100070.38;;;16.59;56.43
18784;BME280;9520;50.954;6.968;2023-12-14T00:28:22;100069.56;;;16.57;56.37
18784;BME280;9520;50.954;6.968;2023-12-14T00:28:47;100079.44;;;16.55;56.19
18784;BME280;9520;50.954;6.968;2023-12-14T00:29:09;100073.22;;;16.55;56.17
18784;BME280;9520;50.954;6.968;2023-12-14T00:29:31;100072.38;;;16.54;56.28
18784;BME280;9520;50.954;6.968;2023-12-14T00:29:53;100073.22;;;16.55;56.36
18784;BME280;9520;50.954;6.968;2023-12-14T00:30:15;100068.94;;;16.52;56.43
18784;BME280;9520;50.954;6.968;2023-12-14T00:30:36;100079.50;;;16.54;56.48
18784;BME280;9520;50.954;6.968;2023-12-14T00:30:59;100071.72;;;16.49;56.45
18784;BME280;9520;50.954;6.968;2023-12-14T00:31:21;100078.84;;;16.49;56.47
18784;BME280;9520;50.954;6.968;2023-12-14T00:31:42;100072.75;;;16.47;56.89
18784;BME280;9520;50.954;6.968;2023-12-14T00:32:05;100069.47;;;16.41;56.74
18784;BME280;9520;50.954;6.968;2023-12-14T00:32:27;100071.84;;;16.48;56.86
18784;BME280;9520;50.954;6.968;2023-12-14T00:32:49;100092.25;;;16.47;56.54
18784;BME280;9520;50.954;6.968;2023-12-14T00:33:11;100078.72;;;16.52;56.72
18784;BME280;9520;50.954;6.968;2023-12-14T00:33:33;100082.38;;;16.49;56.75
18784;BME280;9520;50.954;6.968;2023-12-14T00:33:55;100080.53;;;16.51;56.79
18784;BME280;9520;50.954;6.968;2023-12-14T00:34:17;100073.63;;;16.47;56.65
18784;BME280;9520;50.954;6.968;2023-12-14T00:34:38;100082.47;;;16.48;56.74
18784;BME280;9520;50.954;6.968;2023-12-14T00:35:02;100077.84;;;16.51;56.48
18784;BME280;9520;50.954;6.968;2023-12-14T00:35:23;100082.31;;;16.51;56.80
18784;BME280;9520;50.954;6.968;2023-12-14T00:35:45;100082.47;;;16.48;56.53
18784;BME280;9520;50.954;6.968;2023-12-14T00:36:07;100084.97;;;16.51;56.48
18784;BME280;9520;50.954;6.968;2023-12-14T00:36:29;100080.34;;;16.54;56.65
18784;BME280;9520;50.954;6.968;2023-12-14T00:36:51;100082.16;;;16.54;56.70
18784;BME280;9520;50.954;6.968;2023-12-14T00:37:13;100077.69;;;16.54;56.67
18784;BME280;9520;50.954;6.968;2023-12-14T00:37:35;100086.53;;;16.55;56.49
18784;BME280;9520;50.954;6.968;2023-12-14T00:37:58;100086.47;;;16.56;56.62
18784;BME280;9520;50.954;6.968;2023-12-14T00:38:19;100084.63;;;16.58;56.40
18784;BME280;9520;50.954;6.968;2023-12-14T00:38:41;100085.56;;;16.57;56.67
18784;BME280;9520;50.954;6.968;2023-12-14T00:39:03;100087.28;;;16.58;56.27
18784;BME280;9520;50.954;6.968;2023-12-14T00:39:26;100083.94;;;16.53;56.37
18784;BME280;9520;50.954;6.968;2023-12-14T00:39:48;100090.59;;;16.45;56.64
18784;BME280;9520;50.954;6.968;2023-12-14T00:40:10;100089.66;;;16.46;56.69
18784;BME280;9520;50.954;6.968;2023-12-14T00:40:32;100088.63;;;16.48;56.67
18784;BME280;9520;50.954;6.968;2023-12-14T00:40:54;100089.38;;;16.52;56.75
18784;BME280;9520;50.954;6.968;2023-12-14T00:41:16;100089.38;;;16.52;56.76
18784;BME280;9520;50.954;6.968;2023-12-14T00:41:38;100085.03;;;16.49;56.95
18784;BME280;9520;50.954;6.968;2023-12-14T00:42:00;100086.53;;;16.55;56.72
18784;BME280;9520;50.954;6.968;2023-12-14T00:42:21;100083.88;;;16.55;56.75
18784;BME280;9520;50.954;6.968;2023-12-14T00:42:43;100090.13;;;16.54;56.44
18784;BME280;9520;50.954;6.968;2023-12-14T00:43:06;100091.94;;;16.53;56.57
18784;BME280;9520;50.954;6.968;2023-12-14T00:43:27;100086.78;;;16.50;56.52
18784;BME280;9520;50.954;6.968;2023-12-14T00:43:49;100091.94;;;16.53;56.71
18784;BME280;9520;50.954;6.968;2023-12-14T00:44:11;100090.25;;;16.52;56.60
18784;BME280;9520;50.954;6.968;2023-12-14T00:44:33;100088.34;;;16.54;56.67
18784;BME280;9520;50.954;6.968;2023-12-14T00:44:55;100092.66;;;16.57;56.65
18784;BME280;9520;50.954;6.968;2023-12-14T00:45:18;100083.13;;;16.53;56.54
18784;BME280;9520;50.954;6.968;2023-12-14T00:45:39;100099.78;;;16.56;56.60
18784;BME280;9520;50.954;6.968;2023-12-14T00:46:03;100095.41;;;16.55;56.63
18784;BME280;9520;50.954;6.968;2023-12-14T00:46:24;100093.59;;;16.56;56.37
18784;BME280;9520;50.954;6.968;2023-12-14T00:46:46;100101.75;;;16.53;56.55
18784;BME280;9520;50.954;6.968;2023-12-14T00:47:08;100093.59;;;16.56;56.58
18784;BME280;9520;50.954;6.968;2023-12-14T00:47:30;100095.41;;;16.55;56.35
18784;BME280;9520;50.954;6.968;2023-12-14T00:47:52;100089.22;;;16.55;56.75
18784;BME280;9520;50.954;6.968;2023-12-14T00:48:14;100094.38;;;16.58;56.76
18784;BME280;9520;50.954;6.968;2023-12-14T00:48:35;100097.00;;;16.59;56.64
18784;BME280;9520;50.954;6.968;2023-12-14T00:48:58;100094.38;;;16.58;56.65
18784;BME280;9520;50.954;6.968;2023-12-14T00:49:20;100097.03;;;16.58;56.33
18784;BME280;9520;50.954;6.968;2023-12-14T00:49:41;100091.81;;;16.56;56.70
18784;BME280;9520;50.954;6.968;2023-12-14T00:50:04;100091.81;;;16.56;56.33
18784;BME280;9520;50.954;6.968;2023-12-14T00:50:26;100104.25;;;16.56;56.75
18784;BME280;9520;50.954;6.968;2023-12-14T00:50:48;100100.78;;;16.54;56.73
18784;BME280;9520;50.954;6.968;2023-12-14T00:51:10;100109.63;;;16.54;56.51
18784;BME280;9520;50.954;6.968;2023-12-14T00:51:32;100101.59;;;16.56;56.51
18784;BME280;9520;50.954;6.968;2023-12-14T00:51:53;100102.53;;;16.55;56.53
18784;BME280;9520;50.954;6.968;2023-12-14T00:52:15;100105.03;;;16.58;56.64
18784;BME280;9520;50.954;6.968;2023-12-14T00:52:37;100105.97;;;16.57;56.86
18784;BME280;9520;50.954;6.968;2023-12-14T00:53:00;100106.91;;;16.56;56.78
18784;BME280;9520;50.954;6.968;2023-12-14T00:53:22;100105.25;;;16.53;56.61
18784;BME280;9520;50.954;6.968;2023-12-14T00:53:44;100097.59;;;16.47;56.66
18784;BME280;9520;50.954;6.968;2023-12-14T00:54:05;100103.56;;;16.52;56.90
18784;BME280;9520;50.954;6.968;2023-12-14T00:54:27;100118.50;;;16.55;56.59
18784;BME280;9520;50.954;6.968;2023-12-14T00:54:50;100108.72;;;16.55;56.78
18784;BME280;9520;50.954;6.968;2023-12-14T00:55:11;100115.84;;;16.55;56.59
18784;BME280;9520;50.954;6.968;2023-12-14T00:55:33;100121.16;;;16.55;56.88
18784;BME280;9520;50.954;6.968;2023-12-14T00:55:55;100110.50;;;16.55;56.70
18784;BME280;9520;50.954;6.968;2023-12-14T00:56:16;100121.09;;;16.56;56.61
18784;BME280;9520;50.954;6.968;2023-12-14T00:56:41;100120.22;;;16.56;56.88
18784;BME280;9520;50.954;6.968;2023-12-14T00:57:04;100125.63;;;16.54;56.88
18784;BME280;9520;50.954;6.968;2023-12-14T00:57:26;100122.03;;;16.55;57.03
18784;BME280;9520;50.954;6.968;2023-12-14T00:57:47;100117.56;;;16.56;56.78
18784;BME280;9520;50.954;6.968;2023-12-14T00:58:09;100127.28;;;16.57;56.61
18784;BME280;9520;50.954;6.968;2023-12-14T00:58:30;100125.44;;;16.59;56.68
18784;BME280;9520;50.954;6.968;2023-12-14T00:58:52;100125.34;;;16.60;56.70
18784;BME280;9520;50.954;6.968;2023-12-14T00:59:15;100120.91;;;16.61;56.71
18784;BME280;9520;50.954;6.968;2023-12-14T00:59:37;100127.97;;;16.62;56.59
18784;BME280;9520;50.954;6.968;2023-12-14T00:59:59;100131.38;;;16.64;56.70
18784;BME280;9520;50.954;6.968;2023-12-14T01:00:21;100129.66;;;16.63;56.44
18784;BME280;9520;50.954;6.968;2023-12-14T01:00:43;100128.81;;;16.62;56.46
18784;BME280;9520;50.954;6.968;2023-12-14T01:01:05;100134.22;;;16.61;56.68
18784;BME280;9520;50.954;6.968;2023-12-14T01:01:28;100134.28;;;16.59;56.48
18784;BME280;9520;50.954;6.968;2023-12-14T01:01:49;100131.63;;;16.59;56.94
18784;BME280;9520;50.954;6.968;2023-12-14T01:02:11;100140.41;;;16.61;56.80
18784;BME280;9520;50.954;6.968;2023-12-14T01:02:33;100133.34;;;16.60;56.62
18784;BME280;9520;50.954;6.968;2023-12-14T01:02:55;100140.47;;;16.60;56.42
18784;BME280;9520;50.954;6.968;2023-12-14T01:03:18;100130.88;;;16.56;56.60
18784;BME280;9520;50.954;6.968;2023-12-14T01:03:39;100134.31;;;16.58;56.85
18784;BME280;9520;50.954;6.968;2023-12-14T01:04:01;100130.81;;;16.57;56.64
18784;BME280;9520;50.954;6.968;2023-12-14T01:04:23;100130.00;;;16.55;56.65
18784;BME280;9520;50.954;6.968;2023-12-14T01:04:44;100144.94;;;16.59;56.54
18784;BME280;9520;50.954;6.968;2023-12-14T01:05:06;100140.47;;;16.60;56.60
18784;BME280;9520;50.954;6.968;2023-12-14T01:05:29;100137.81;;;16.60;56.77
18784;BME280;9520;50.954;6.968;2023-12-14T01:05:51;100133.34;;;16.60;56.73
18784;BME280;9520;50.954;6.968;2023-12-14T01:06:13;100141.28;;;16.62;56.60
18784;BME280;9520;50.954;6.968;2023-12-14T01:06:34;100135.06;;;16.61;56.93
18784;BME280;9520;50.954;6.968;2023-12-14T01:06:57;100138.50;;;16.63;56.87
18784;BME280;9520;50.954;6.968;2023-12-14T01:07:19;100144.69;;;16.64;56.58
18784;BME280;9520;50.954;6.968;2023-12-14T01:07:41;100141.28;;;16.62;56.36
18784;BME280;9520;50.954;6.968;2023-12-14T01:08:04;100142.91;;;16.64;56.41
18784;BME280;9520;50.954;6.968;2023-12-14T01:08:26;100138.59;;;16.62;56.29
18784;BME280;9520;50.954;6.968;2023-12-14T01:08:48;100145.63;;;16.63;56.51
18784;BME280;9520;50.954;6.968;2023-12-14T01:09:10;100142.97;;;16.63;56.41
18784;BME280;9520;50.954;6.968;2023-12-14T01:09:32;100145.63;;;16.63;56.46
18784;BME280;9520;50.954;6.968;2023-12-14T01:09:54;100142.91;;;16.64;56.42
18784;BME280;9520;50.954;6.968;2023-12-14T01:10:15;100140.31;;;16.63;56.67
18784;BME280;9520;50.954;6.968;2023-12-14T01:10:37;100142.91;;;16.64;56.64
18784;BME280;9520;50.954;6.968;2023-12-14T01:11:00;100141.09;;;16.65;56.75
18784;BME280;9520;50.954;6.968;2023-12-14T01:11:22;100143.59;;;16.68;56.74
18784;BME280;9520;50.954;6.968;2023-12-14T01:11:43;100148.00;;;16.69;56.52
18784;BME280;9520;50.954;6.968;2023-12-14T01:12:05;100148.94;;;16.68;56.59
18784;BME280;9520;50.954;6.968;2023-12-14T01:12:27;100153.31;;;16.69;56.59
18784;BME280;9520;50.954;6.968;2023-12-14T01:12:48;100153.25;;;16.70;56.40
18784;BME280;9520;50.954;6.968;2023-12-14T01:13:11;100154.19;;;16.69;56.22
18784;BME280;9520;50.954;6.968;2023-12-14T01:13:33;100151.47;;;16.71;56.41
18784;BME280;9520;50.954;6.968;2023-12-14T01:13:54;100154.19;;;16.69;56.54
18784;BME280;9520;50.954;6.968;2023-12-14T01:14:16;100151.53;;;16.69;56.59
18784;BME280;9520;50.954;6.968;2023-12-14T01:14:38;100149.75;;;16.70;56.61
18784;BME280;9520;50.954;6.968;2023-12-14T01:15:00;100151.59;;;16.68;56.36
18784;BME280;9520;50.954;6.968;2023-12-14T01:15:22;100157.72;;;16.70;56.34
18784;BME280;9520;50.954;6.968;2023-12-14T01:15:44;100158.66;;;16.69;56.50
18784;BME280;9520;50.954;6.968;2023-12-14T01:16:06;100162.19;;;16.69;56.53
18784;BME280;9520;50.954;6.968;2023-12-14T01:16:27;100160.38;;;16.70;56.29
18784;BME280;9520;50.954;6.968;2023-12-14T01:16:49;100160.38;;;16.70;56.57
18784;BME280;9520;50.954;6.968;2023-12-14T01:17:12;100149.91;;;16.67;56.23
18784;BME280;9520;50.954;6.968;2023-12-14T01:17:33;100148.28;;;16.63;56.27
18784;BME280;9520;50.954;6.968;2023-12-14T01:17:57;100154.13;;;16.71;56.19
18784;BME280;9520;50.954;6.968;2023-12-14T01:18:19;100158.59;;;16.70;56.09
18784;BME280;9520;50.954;6.968;2023-12-14T01:18:41;100159.41;;;16.72;56.09
18784;BME280;9520;50.954;6.968;2023-12-14T01:19:04;100166.34;;;16.75;56.18
18784;BME280;9520;50.954;6.968;2023-12-14T01:19:27;100160.09;;;16.76;55.99
18784;BME280;9520;50.954;6.968;2023-12-14T01:19:48;100163.84;;;16.72;56.08
18784;BME280;9520;50.954;6.968;2023-12-14T01:20:11;100157.50;;;16.74;56.26
18784;BME280;9520;50.954;6.968;2023-12-14T01:20:32;100156.56;;;16.75;56.28
18784;BME280;9520;50.954;6.968;2023-12-14T01:20:55;100166.19;;;16.78;56.00
18784;BME280;9520;50.954;6.968;2023-12-14T01:21:17;100166.19;;;16.78;56.18
18784;BME280;9520;50.954;6.968;2023-12-14T01:21:38;100164.50;;;16.77;56.06
18784;BME280;9520;50.954;6.968;2023-12-14T01:22:00;100160.00;;;16.77;56.16
18784;BME280;9520;50.954;6.968;2023-12-14T01:22:21;100161.72;;;16.78;56.12
18784;BME280;9520;50.954;6.968;2023-12-14T01:22:43;100169.66;;;16.80;56.05
18784;BME280;9520;50.954;6.968;2023-12-14T01:23:07;100164.34;;;16.80;56.14
18784;BME280;9520;50.954;6.968;2023-12-14T01:23:31;100167.00;;;16.80;56.28
18784;BME280;9520;50.954;6.968;2023-12-14T01:23:53;100161.72;;;16.78;56.14
18784;BME280;9520;50.954;6.968;2023-12-14T01:24:14;100166.13;;;16.79;56.27
18784;BME280;9520;50.954;6.968;2023-12-14T01:24:37;100171.53;;;16.78;56.03
18784;BME280;9520;50.954;6.968;2023-12-14T01:24:59;100169.81;;;16.77;56.08
18784;BME280;9520;50.954;6.968;2023-12-14T01:25:21;100165.66;;;16.71;56.21
18784;BME280;9520;50.954;6.968;2023-12-14T01:25:42;100162.41;;;16.65;56.50
18784;BME280;9520;50.954;6.968;2023-12-14T01:26:04;100171.97;;;16.69;56.38
18784;BME280;9520;50.954;6.968;2023-12-14T01:26:26;100171.03;;;16.70;56.60
18784;BME280;9520;50.954;6.968;2023-12-14T01:26:49;100174.63;;;16.69;56.63
18784;BME280;9520;50.954;6.968;2023-12-14T01:27:10;100173.69;;;16.70;56.40
18784;BME280;9520;50.954;6.968;2023-12-14T01:27:35;100172.84;;;16.69;56.54
18784;BME280;9520;50.954;6.968;2023-12-14T01:27:56;100176.53;;;16.67;56.38
18784;BME280;9520;50.954;6.968;2023-12-14T01:28:18;100177.47;;;16.66;56.42
18784;BME280;9520;50.954;6.968;2023-12-14T01:28:40;100181.84;;;16.67;56.78
18784;BME280;9520;50.954;6.968;2023-12-14T01:29:02;100180.81;;;16.69;56.41
18784;BME280;9520;50.954;6.968;2023-12-14T01:29:24;100182.63;;;16.69;56.63
18784;BME280;9520;50.954;6.968;2023-12-14T01:29:46;100184.34;;;16.70;56.75
18784;BME280;9520;50.954;6.968;2023-12-14T01:30:08;100183.50;;;16.69;56.57
18784;BME280;9520;50.954;6.968;2023-12-14T01:30:30;100180.81;;;16.69;56.84
18784;BME280;9520;50.954;6.968;2023-12-14T01:30:52;100184.50;;;16.67;57.00
18784;BME280;9520;50.954;6.968;2023-12-14T01:31:14;100181.06;;;16.65;56.82
18784;BME280;9520;50.954;6.968;2023-12-14T01:31:36;100180.25;;;16.63;56.66
18784;BME280;9520;50.954;6.968;2023-12-14T01:31:58;100182.06;;;16.62;56.89
18784;BME280;9520;50.954;6.968;2023-12-14T01:32:20;100184.81;;;16.61;56.62
18784;BME280;9520;50.954;6.968;2023-12-14T01:32:42;100184.06;;;16.57;56.90
18784;BME280;9520;50.954;6.968;2023-12-14T01:33:04;100182.38;;;16.55;57.26
18784;BME280;9520;50.954;6.968;2023-12-14T01:33:26;100185.72;;;16.60;57.13
18784;BME280;9520;50.954;6.968;2023-12-14T01:33:48;100171.69;;;16.56;57.02
18784;BME280;9520;50.954;6.968;2023-12-14T01:34:10;100185.66;;;16.61;57.18
18784;BME280;9520;50.954;6.968;2023-12-14T01:34:34;100187.47;;;16.61;57.06
18784;BME280;9520;50.954;6.968;2023-12-14T01:35:27;100187.19;;;16.67;57.10
18784;BME280;9520;50.954;6.968;2023-12-14T01:35:51;100188.09;;;16.66;57.21
18784;BME280;9520;50.954;6.968;2023-12-14T01:36:19;100181.84;;;16.67;57.15
18784;BME280;9520;50.954;6.968;2023-12-14T01:36:41;100193.38;;;16.67;57.21
18784;BME280;9520;50.954;6.968;2023-12-14T01:37:05;100195.16;;;16.67;57.26
18784;BME280;9520;50.954;6.968;2023-12-14T01:37:28;100191.69;;;16.65;57.02
18784;BME280;9520;50.954;6.968;2023-12-14T01:37:52;100190.78;;;16.66;57.04
18784;BME280;9520;50.954;6.968;2023-12-14T01:38:15;100193.44;;;16.66;57.10
18784;BME280;9520;50.954;6.968;2023-12-14T01:38:37;100192.63;;;16.64;57.23
18784;BME280;9520;50.954;6.968;2023-12-14T01:39:00;100192.78;;;16.61;57.37
18784;BME280;9520;50.954;6.968;2023-12-14T01:39:22;100190.06;;;16.62;57.28
18784;BME280;9520;50.954;6.968;2023-12-14T01:39:43;100196.09;;;16.66;57.35
18784;BME280;9520;50.954;6.968;2023-12-14T01:40:06;100191.69;;;16.65;57.31
18784;BME280;9520;50.954;6.968;2023-12-14T01:40:28;100186.44;;;16.63;57.44
18784;BME280;9520;50.954;6.968;2023-12-14T01:40:51;100193.56;;;16.63;57.39
18784;BME280;9520;50.954;6.968;2023-12-14T01:41:13;100191.75;;;16.63;57.28
18784;BME280;9520;50.954;6.968;2023-12-14T01:41:34;100188.22;;;16.63;57.11
18784;BME280;9520;50.954;6.968;2023-12-14T01:41:56;100198.06;;;16.62;57.31
18784;BME280;9520;50.954;6.968;2023-12-14T01:42:18;100190.06;;;16.62;57.29
18784;BME280;9520;50.954;6.968;2023-12-14T01:42:40;100191.00;;;16.61;57.17
18784;BME280;9520;50.954;6.968;2023-12-14T01:43:11;100188.34;;;16.61;57.22
18784;BME280;9520;50.954;6.968;2023-12-14T01:43:33;100188.41;;;16.60;57.43
18784;BME280;9520;50.954;6.968;2023-12-14T01:43:55;100191.00;;;16.61;57.43
18784;BME280;9520;50.954;6.968;2023-12-14T01:44:16;100193.56;;;16.63;57.50
18784;BME280;9520;50.954;6.968;2023-12-14T01:44:38;100192.63;;;16.64;57.43
18784;BME280;9520;50.954;6.968;2023-12-14T01:45:01;100188.09;;;16.66;57.13
18784;BME280;9520;50.954;6.968;2023-12-14T01:45:23;100192.63;;;16.64;57.36
18784;BME280;9520;50.954;6.968;2023-12-14T01:45:45;100194.44;;;16.63;57.37
18784;BME280;9520;50.954;6.968;2023-12-14T01:46:06;100196.16;;;16.64;57.29
18784;BME280;9520;50.954;6.968;2023-12-14T01:46:28;100197.91;;;16.65;57.01
18784;BME280;9520;50.954;6.968;2023-12-14T01:46:50;100197.84;;;16.67;57.37
18784;BME280;9520;50.954;6.968;2023-12-14T01:47:13;100204.94;;;16.66;57.10
18784;BME280;9520;50.954;6.968;2023-12-14T01:47:35;100203.06;;;16.68;57.34
18784;BME280;9520;50.954;6.968;2023-12-14T01:47:57;100200.41;;;16.68;57.01
18784;BME280;9520;50.954;6.968;2023-12-14T01:48:19;100205.81;;;16.67;57.23
18784;BME280;9520;50.954;6.968;2023-12-14T01:48:41;100200.63;;;16.64;57.44
18784;BME280;9520;50.954;6.968;2023-12-14T01:49:03;100202.41;;;16.63;57.46
18784;BME280;9520;50.954;6.968;2023-12-14T01:49:25;100206.81;;;16.64;57.45
18784;BME280;9520;50.954;6.968;2023-12-14T01:49:47;100205.06;;;16.63;57.43
18784;BME280;9520;50.954;6.968;2023-12-14T01:50:09;100208.84;;;16.59;57.31
18784;BME280;9520;50.954;6.968;2023-12-14T01:50:31;100210.41;;;16.63;57.38
18784;BME280;9520;50.954;6.968;2023-12-14T01:50:53;100208.84;;;16.59;57.46
18784;BME280;9520;50.954;6.968;2023-12-14T01:51:17;100211.28;;;16.64;57.45
18784;BME280;9520;50.954;6.968;2023-12-14T01:51:38;100208.59;;;16.64;57.33
18784;BME280;9520;50.954;6.968;2023-12-14T01:52:00;100205.94;;;16.64;57.36
18784;BME280;9520;50.954;6.968;2023-12-14T01:52:22;100208.53;;;16.65;57.29
18784;BME280;9520;50.954;6.968;2023-12-14T01:52:43;100206.75;;;16.66;57.46
18784;BME280;9520;50.954;6.968;2023-12-14T01:53:05;100215.59;;;16.66;57.32
18784;BME280;9520;50.954;6.968;2023-12-14T01:53:29;100207.69;;;16.65;57.05
18784;BME280;9520;50.954;6.968;2023-12-14T01:53:51;100211.06;;;16.68;57.08
18784;BME280;9520;50.954;6.968;2023-12-14T01:54:13;100207.69;;;16.65;57.22
18784;BME280;9520;50.954;6.968;2023-12-14T01:54:34;100216.38;;;16.68;57.40
18784;BME280;9520;50.954;6.968;2023-12-14T01:54:56;100209.25;;;16.69;57.26
18784;BME280;9520;50.954;6.968;2023-12-14T01:55:20;100211.91;;;16.69;57.05
18784;BME280;9520;50.954;6.968;2023-12-14T01:55:43;100209.47;;;16.64;57.35
18784;BME280;9520;50.954;6.968;2023-12-14T01:56:06;100216.47;;;16.67;57.30
18784;BME280;9520;50.954;6.968;2023-12-14T01:56:28;100217.53;;;16.63;57.35
18784;BME280;9520;50.954;6.968;2023-12-14T01:56:49;100211.28;;;16.64;57.36
18784;BME280;9520;50.954;6.968;2023-12-14T01:57:11;100221.69;;;16.68;57.37
18784;BME280;9520;50.954;6.968;2023-12-14T01:57:33;100216.38;;;16.68;57.16
18784;BME280;9520;50.954;6.968;2023-12-14T01:57:55;100226.09;;;16.69;57.11